createdAt,value
2019-03-17T00:02:19.297Z,9.80
2019-03-17T00:04:47.798Z,9.80
2019-03-17T00:07:16.254Z,9.60
2019-03-17T00:09:44.760Z,9.60
2019-03-17T00:12:13.343Z,9.60
2019-03-17T00:14:41.922Z,9.60
2019-03-17T00:17:10.454Z,9.70
2019-03-17T00:19:38.962Z,9.70
2019-03-17T00:22:07.538Z,9.70
2019-03-17T00:24:36.066Z,9.70
2019-03-17T00:27:04.643Z,9.60
2019-03-17T00:29:33.174Z,9.60
2019-03-17T00:32:01.690Z,9.60
2019-03-17T00:34:30.148Z,9.60
2019-03-17T00:36:58.815Z,9.60
2019-03-17T00:39:27.389Z,9.60
2019-03-17T00:41:55.920Z,9.60
2019-03-17T00:44:24.493Z,9.60
2019-03-17T00:46:52.998Z,9.60
2019-03-17T00:49:21.588Z,9.50
2019-03-17T00:51:50.136Z,9.50
2019-03-17T00:54:18.730Z,9.50
2019-03-17T00:56:47.260Z,9.50
2019-03-17T00:59:15.858Z,9.50
2019-03-17T01:01:44.421Z,9.50
2019-03-17T01:04:12.930Z,9.50
2019-03-17T01:06:41.519Z,9.40
2019-03-17T01:09:10.050Z,9.40
2019-03-17T01:11:38.636Z,9.40
2019-03-17T01:14:07.179Z,9.50
2019-03-17T01:16:35.753Z,9.30
2019-03-17T01:19:05.882Z,9.20
2019-03-17T01:21:34.465Z,9.20
2019-03-17T01:24:03.005Z,9.30
2019-03-17T01:26:31.584Z,9.30
2019-03-17T01:29:00.123Z,9.20
2019-03-17T01:31:28.761Z,9.30
2019-03-17T01:33:57.283Z,9.20
2019-03-17T01:36:25.807Z,9.30
2019-03-17T01:38:54.352Z,9.20
2019-03-17T01:41:22.917Z,9.20
2019-03-17T01:43:51.453Z,9.30
2019-03-17T01:46:19.985Z,9.30
2019-03-17T01:48:48.605Z,9.30
2019-03-17T01:51:17.121Z,9.30
2019-03-17T01:53:45.693Z,9.30
2019-03-17T01:56:14.146Z,9.30
2019-03-17T01:58:42.997Z,9.40
2019-03-17T02:01:12.109Z,9.40
2019-03-17T02:03:40.641Z,9.50
2019-03-17T02:06:09.107Z,9.50
2019-03-17T02:08:37.915Z,9.50
2019-03-17T02:11:06.447Z,9.60
2019-03-17T02:13:35.282Z,9.60
2019-03-17T02:16:03.860Z,9.60
2019-03-17T02:18:32.468Z,9.60
2019-03-17T02:21:01.046Z,9.50
2019-03-17T02:23:29.584Z,9.50
2019-03-17T02:25:58.158Z,9.50
2019-03-17T02:28:26.741Z,9.50
2019-03-17T02:30:55.341Z,9.50
2019-03-17T02:33:23.848Z,9.50
2019-03-17T02:35:52.379Z,9.40
2019-03-17T02:38:21.106Z,9.50
2019-03-17T02:40:49.628Z,9.40
2019-03-17T02:43:18.564Z,9.40
2019-03-17T02:45:47.094Z,9.40
2019-03-17T02:48:15.674Z,9.40
2019-03-17T02:50:44.183Z,9.40
2019-03-17T02:53:12.731Z,9.40
2019-03-17T02:55:41.252Z,9.40
2019-03-17T02:58:09.782Z,9.30
2019-03-17T03:00:38.420Z,9.30
2019-03-17T03:03:06.951Z,9.30
2019-03-17T03:05:35.527Z,9.20
2019-03-17T03:08:04.126Z,9.30
2019-03-17T03:10:32.719Z,9.30
2019-03-17T03:13:01.235Z,9.30
2019-03-17T03:15:29.815Z,9.30
2019-03-17T03:17:58.350Z,9.40
2019-03-17T03:20:26.934Z,9.30
2019-03-17T03:22:55.859Z,9.30
2019-03-17T03:25:24.390Z,9.30
2019-03-17T03:27:52.892Z,9.30
2019-03-17T03:30:21.434Z,9.40
2019-03-17T03:32:50.030Z,9.30
2019-03-17T03:35:18.858Z,9.30
2019-03-17T03:37:47.382Z,9.40
2019-03-17T03:40:15.962Z,9.40
2019-03-17T03:42:44.815Z,9.30
2019-03-17T03:45:13.730Z,9.30
2019-03-17T03:47:42.319Z,9.40
2019-03-17T03:50:12.277Z,9.40
2019-03-17T03:52:40.859Z,9.30
2019-03-17T03:55:10.394Z,9.40
2019-03-17T03:57:39.003Z,9.30
2019-03-17T04:00:10.833Z,9.30
2019-03-17T04:02:39.357Z,9.30
2019-03-17T04:05:08.299Z,9.20
2019-03-17T04:07:36.835Z,9.30
2019-03-17T04:10:07.879Z,9.20
2019-03-17T04:12:36.334Z,9.20
2019-03-17T04:15:06.958Z,9.20
2019-03-17T04:17:35.532Z,9.20
2019-03-17T04:20:05.842Z,9.30
2019-03-17T04:22:34.705Z,9.40
2019-03-17T04:25:03.751Z,9.30
2019-03-17T04:27:32.277Z,9.30
2019-03-17T04:30:00.817Z,9.20
2019-03-17T04:32:29.394Z,9.30
2019-03-17T04:34:57.922Z,9.30
2019-03-17T04:37:26.510Z,9.30
2019-03-17T04:39:55.382Z,9.30
2019-03-17T04:42:24.270Z,9.40
2019-03-17T04:44:53.058Z,9.40
2019-03-17T04:47:21.643Z,9.40
2019-03-17T04:49:50.170Z,9.40
2019-03-17T04:52:18.743Z,9.50
2019-03-17T04:54:47.284Z,9.40
2019-03-17T04:57:15.863Z,9.40
2019-03-17T04:59:44.401Z,9.40
2019-03-17T05:02:13.772Z,9.40
2019-03-17T05:04:42.458Z,9.40
2019-03-17T05:07:11.137Z,9.40
2019-03-17T05:09:39.645Z,9.40
2019-03-17T05:12:08.222Z,9.40
2019-03-17T05:14:36.750Z,9.40
2019-03-17T05:17:05.329Z,9.40
2019-03-17T05:19:33.898Z,9.40
2019-03-17T05:22:02.793Z,9.40
2019-03-17T05:24:31.405Z,9.40
2019-03-17T05:26:59.900Z,9.40
2019-03-17T05:29:28.474Z,9.50
2019-03-17T05:31:56.997Z,9.50
2019-03-17T05:34:25.573Z,9.60
2019-03-17T05:37:05.357Z,9.50
2019-03-17T05:39:24.278Z,9.60
2019-03-17T05:41:52.806Z,9.60
2019-03-17T05:44:21.341Z,9.60
2019-03-17T05:46:49.914Z,9.60
2019-03-17T05:49:18.417Z,9.70
2019-03-17T05:51:46.946Z,9.70
2019-03-17T05:54:15.442Z,9.70
2019-03-17T05:56:43.952Z,9.70
2019-03-17T05:59:12.557Z,9.60
2019-03-17T06:01:41.417Z,9.70
2019-03-17T06:04:10.058Z,9.80
2019-03-17T06:06:38.566Z,9.80
2019-03-17T06:09:07.562Z,9.80
2019-03-17T06:11:36.138Z,9.90
2019-03-17T06:14:04.971Z,9.80
2019-03-17T06:16:33.840Z,9.90
2019-03-17T06:19:02.354Z,9.90
2019-03-17T06:21:30.938Z,9.90
2019-03-17T06:23:59.480Z,10.00
2019-03-17T06:26:28.064Z,10.00
2019-03-17T06:28:56.598Z,10.10
2019-03-17T06:31:25.173Z,10.10
2019-03-17T06:33:53.895Z,10.10
2019-03-17T06:36:22.482Z,10.10
2019-03-17T06:38:50.937Z,10.10
2019-03-17T06:41:19.450Z,10.20
2019-03-17T06:43:47.910Z,10.20
2019-03-17T06:46:17.315Z,10.20
2019-03-17T06:48:45.891Z,10.20
2019-03-17T06:51:14.780Z,10.30
2019-03-17T06:53:55.412Z,10.30
2019-03-17T06:56:13.616Z,10.30
2019-03-17T06:58:42.218Z,10.30
2019-03-17T07:01:10.751Z,10.40
2019-03-17T07:03:39.290Z,10.30
2019-03-17T07:06:07.873Z,10.30
2019-03-17T07:08:36.414Z,10.40
2019-03-17T07:11:05.594Z,10.30
2019-03-17T07:13:34.246Z,10.40
2019-03-17T07:16:02.789Z,10.30
2019-03-17T07:18:31.299Z,10.40
2019-03-17T07:20:59.759Z,10.40
2019-03-17T07:23:28.337Z,10.40
2019-03-17T07:25:56.883Z,10.40
2019-03-17T07:28:25.473Z,10.40
2019-03-17T07:30:54.010Z,10.50
2019-03-17T07:33:22.598Z,10.50
2019-03-17T07:35:51.058Z,10.60
2019-03-17T07:38:19.623Z,10.50
2019-03-17T07:40:48.743Z,10.50
2019-03-17T07:43:17.317Z,10.60
2019-03-17T07:45:45.785Z,10.60
2019-03-17T07:48:14.377Z,10.60
2019-03-17T07:50:42.968Z,10.60
2019-03-17T07:53:11.491Z,10.60
2019-03-17T07:55:40.079Z,10.50
2019-03-17T07:58:08.675Z,10.60
2019-03-17T08:00:37.508Z,10.60
2019-03-17T08:03:06.194Z,10.60
2019-03-17T08:05:34.730Z,10.50
2019-03-17T08:08:09.247Z,10.50
2019-03-17T08:10:33.494Z,10.50
2019-03-17T08:13:01.973Z,10.50
2019-03-17T08:15:30.566Z,10.50
2019-03-17T08:17:59.107Z,10.50
2019-03-17T08:20:27.769Z,10.40
2019-03-17T08:22:56.235Z,10.30
2019-03-17T08:25:24.815Z,10.40
2019-03-17T08:27:53.328Z,10.30
2019-03-17T08:30:21.986Z,10.30
2019-03-17T08:32:50.530Z,10.30
2019-03-17T08:35:19.072Z,10.30
2019-03-17T08:37:47.672Z,10.30
2019-03-17T08:40:17.377Z,10.40
2019-03-17T08:42:45.910Z,10.50
2019-03-17T08:45:14.835Z,10.50
2019-03-17T08:47:56.673Z,10.60
2019-03-17T08:50:15.474Z,10.60
2019-03-17T08:52:44.131Z,10.60
2019-03-17T08:55:12.745Z,10.70
2019-03-17T08:57:41.399Z,10.70
2019-03-17T09:00:19.258Z,10.60
2019-03-17T09:02:47.846Z,10.70
2019-03-17T09:05:16.438Z,10.80
2019-03-17T09:07:45.139Z,10.70
2019-03-17T09:10:14.598Z,10.80
2019-03-17T09:12:43.276Z,10.80
2019-03-17T09:15:12.017Z,10.60
2019-03-17T09:17:40.553Z,10.50
2019-03-17T09:20:13.518Z,10.60
2019-03-17T09:22:42.127Z,10.70
2019-03-17T09:25:11.553Z,10.80
2019-03-17T09:27:40.136Z,10.70
2019-03-17T09:30:14.022Z,10.70
2019-03-17T09:32:42.609Z,10.80
2019-03-17T09:35:11.210Z,10.80
2019-03-17T09:37:39.722Z,11.00
2019-03-17T09:40:14.065Z,11.10
2019-03-17T09:42:42.596Z,11.30
2019-03-17T09:45:12.817Z,11.40
2019-03-17T09:47:41.643Z,11.50
2019-03-17T09:50:18.972Z,11.70
2019-03-17T09:52:47.559Z,12.00
2019-03-17T09:55:16.093Z,12.10
2019-03-17T09:57:44.753Z,12.40
2019-03-17T10:00:18.230Z,12.40
2019-03-17T10:02:46.805Z,12.30
2019-03-17T10:05:15.486Z,12.10
2019-03-17T10:07:44.074Z,12.10
2019-03-17T10:10:15.736Z,12.20
2019-03-17T10:12:44.285Z,12.20
2019-03-17T10:15:17.975Z,12.20
2019-03-17T10:17:46.625Z,12.40
2019-03-17T10:20:21.993Z,12.50
2019-03-17T10:22:50.579Z,12.80
2019-03-17T10:25:19.154Z,12.90
2019-03-17T10:27:47.694Z,12.50
2019-03-17T10:30:20.970Z,12.40
2019-03-17T10:32:49.554Z,12.30
2019-03-17T10:35:18.224Z,12.30
2019-03-17T10:37:46.747Z,12.40
2019-03-17T10:40:17.011Z,12.30
2019-03-17T10:42:45.633Z,12.40
2019-03-17T10:45:15.364Z,12.40
2019-03-17T10:47:43.900Z,12.40
2019-03-17T10:50:18.151Z,12.20
2019-03-17T10:52:46.806Z,11.90
2019-03-17T10:55:15.518Z,11.60
2019-03-17T10:57:44.675Z,11.30
2019-03-17T11:00:16.069Z,11.10
2019-03-17T11:02:44.609Z,11.10
2019-03-17T11:05:13.278Z,10.80
2019-03-17T11:07:41.920Z,10.60
2019-03-17T11:10:12.609Z,10.40
2019-03-17T11:12:41.184Z,10.40
2019-03-17T11:15:21.290Z,10.40
2019-03-17T11:17:49.870Z,10.20
2019-03-17T11:20:18.453Z,10.20
2019-03-17T11:22:47.109Z,10.20
2019-03-17T11:25:17.087Z,10.10
2019-03-17T11:27:45.749Z,9.80
2019-03-17T11:30:16.607Z,9.50
2019-03-17T11:32:45.274Z,9.60
2019-03-17T11:35:14.069Z,9.10
2019-03-17T11:37:43.790Z,8.50
2019-03-17T11:40:19.761Z,7.90
2019-03-17T11:42:50.128Z,7.40
2019-03-17T11:45:19.481Z,7.20
2019-03-17T11:47:48.139Z,7.00
2019-03-17T11:50:21.737Z,6.70
2019-03-17T11:52:50.841Z,6.60
2019-03-17T11:55:19.531Z,6.70
2019-03-17T11:57:48.231Z,6.70
2019-03-17T12:00:19.773Z,6.70
2019-03-17T12:02:48.399Z,6.60
2019-03-17T12:05:17.003Z,6.90
2019-03-17T12:07:45.641Z,6.80
2019-03-17T12:10:19.518Z,6.70
2019-03-17T12:12:48.214Z,6.80
2019-03-17T12:15:27.920Z,6.90
2019-03-17T12:17:56.551Z,6.80
2019-03-17T12:20:25.007Z,6.70
2019-03-17T12:22:53.639Z,6.80
2019-03-17T12:25:22.242Z,6.80
2019-03-17T12:27:50.802Z,6.80
2019-03-17T12:30:24.207Z,6.80
2019-03-17T12:32:53.396Z,6.80
2019-03-17T12:35:22.064Z,6.90
2019-03-17T12:37:50.956Z,6.90
2019-03-17T12:40:19.420Z,6.90
2019-03-17T12:42:48.050Z,7.00
2019-03-17T12:45:16.652Z,7.00
2019-03-17T12:47:45.237Z,6.90
2019-03-17T12:50:25.085Z,6.90
2019-03-17T12:52:53.708Z,6.90
2019-03-17T12:55:22.305Z,6.90
2019-03-17T12:57:51.106Z,6.90
2019-03-17T13:00:25.082Z,6.90
2019-03-17T13:02:53.615Z,6.80
2019-03-17T13:05:22.250Z,6.70
2019-03-17T13:07:50.792Z,6.90
2019-03-17T13:10:20.619Z,7.10
2019-03-17T13:12:49.456Z,7.30
2019-03-17T13:15:18.007Z,7.40
2019-03-17T13:17:46.617Z,7.50
2019-03-17T13:20:16.415Z,7.60
2019-03-17T13:22:45.017Z,7.80
2019-03-17T13:25:13.710Z,7.90
2019-03-17T13:27:42.310Z,8.00
2019-03-17T13:30:16.704Z,8.00
2019-03-17T13:32:45.228Z,8.20
2019-03-17T13:35:13.949Z,8.20
2019-03-17T13:37:42.462Z,8.20
2019-03-17T13:40:14.022Z,8.30
2019-03-17T13:42:42.632Z,8.30
2019-03-17T13:45:12.623Z,8.30
2019-03-17T13:47:41.449Z,8.40
2019-03-17T13:50:13.058Z,8.40
2019-03-17T13:52:41.592Z,8.50
2019-03-17T13:55:10.219Z,8.50
2019-03-17T13:57:38.818Z,8.50
2019-03-17T14:00:15.223Z,8.50
2019-03-17T14:02:43.758Z,8.40
2019-03-17T14:05:13.293Z,8.40
2019-03-17T14:07:41.830Z,8.30
2019-03-17T14:10:15.718Z,8.20
2019-03-17T14:12:44.250Z,8.20
2019-03-17T14:15:14.447Z,8.10
2019-03-17T14:17:43.048Z,8.00
2019-03-17T14:20:14.682Z,8.00
2019-03-17T14:22:43.289Z,8.00
2019-03-17T14:25:17.435Z,8.00
2019-03-17T14:27:45.982Z,8.00
2019-03-17T14:30:16.622Z,8.00
2019-03-17T14:32:45.225Z,8.10
2019-03-17T14:35:13.859Z,8.10
2019-03-17T14:37:42.398Z,8.20
2019-03-17T14:40:15.938Z,8.20
2019-03-17T14:42:46.564Z,8.30
2019-03-17T14:45:16.270Z,8.30
2019-03-17T14:47:44.874Z,8.20
2019-03-17T14:50:16.013Z,8.20
2019-03-17T14:52:44.673Z,8.30
2019-03-17T14:55:13.465Z,8.40
2019-03-17T14:57:42.004Z,8.60
2019-03-17T15:00:18.784Z,8.80
2019-03-17T15:02:47.458Z,8.80
2019-03-17T15:05:16.141Z,8.80
2019-03-17T15:07:45.397Z,8.90
2019-03-17T15:10:21.163Z,8.90
2019-03-17T15:12:49.701Z,8.90
2019-03-17T15:15:19.281Z,9.00
2019-03-17T15:17:48.093Z,9.00
2019-03-17T15:20:21.275Z,9.00
2019-03-17T15:22:49.960Z,8.90
2019-03-17T15:25:18.522Z,8.90
2019-03-17T15:27:48.094Z,9.00
2019-03-17T15:30:25.737Z,9.10
2019-03-17T15:32:54.715Z,9.10
2019-03-17T15:35:23.374Z,9.30
2019-03-17T15:37:52.030Z,9.30
2019-03-17T15:40:21.646Z,9.20
2019-03-17T15:42:50.254Z,9.20
2019-03-17T15:45:23.799Z,9.40
2019-03-17T15:47:52.499Z,9.40
2019-03-17T15:50:29.142Z,9.50
2019-03-17T15:53:17.086Z,9.50
2019-03-17T15:55:45.665Z,9.60
2019-03-17T15:58:14.472Z,9.60
2019-03-17T16:00:42.978Z,9.50
2019-03-17T16:03:11.842Z,9.50
2019-03-17T16:05:40.425Z,9.50
2019-03-17T16:08:08.960Z,9.50
2019-03-17T16:10:37.534Z,9.50
2019-03-17T16:13:05.991Z,9.50
2019-03-17T16:15:34.576Z,9.60
2019-03-17T16:18:03.109Z,9.60
2019-03-17T16:20:31.666Z,9.60
2019-03-17T16:23:00.225Z,9.50
2019-03-17T16:25:37.263Z,9.40
2019-03-17T16:28:06.091Z,9.20
2019-03-17T16:30:34.697Z,8.80
2019-03-17T16:33:03.354Z,8.10
2019-03-17T16:35:32.031Z,7.80
2019-03-17T16:38:00.633Z,7.80
2019-03-17T16:40:34.042Z,7.60
2019-03-17T16:43:02.687Z,7.50
2019-03-17T16:45:31.541Z,7.40
2019-03-17T16:48:00.120Z,7.50
2019-03-17T16:50:30.729Z,7.40
2019-03-17T16:52:59.307Z,7.50
2019-03-17T16:55:27.926Z,7.50
2019-03-17T16:57:56.557Z,7.50
2019-03-17T17:00:25.994Z,7.50
2019-03-17T17:02:54.623Z,7.70
2019-03-17T17:05:24.196Z,7.70
2019-03-17T17:07:52.820Z,7.70
2019-03-17T17:10:24.427Z,7.80
2019-03-17T17:12:52.973Z,7.80
2019-03-17T17:15:23.703Z,7.80
2019-03-17T17:17:52.303Z,7.70
2019-03-17T17:20:26.287Z,7.80
2019-03-17T17:22:54.824Z,7.80
2019-03-17T17:25:23.453Z,7.70
2019-03-17T17:27:52.493Z,7.70
2019-03-17T17:30:21.098Z,7.80
2019-03-17T17:32:49.724Z,7.80
2019-03-17T17:35:18.429Z,7.80
2019-03-17T17:37:46.962Z,7.80
2019-03-17T17:40:20.873Z,7.70
2019-03-17T17:42:49.593Z,7.50
2019-03-17T17:45:20.749Z,7.20
2019-03-17T17:47:49.287Z,7.20
2019-03-17T17:50:23.854Z,7.10
2019-03-17T17:52:52.489Z,6.90
2019-03-17T17:55:21.024Z,6.80
2019-03-17T17:57:52.504Z,7.00
2019-03-17T18:00:22.453Z,7.00
2019-03-17T18:02:51.001Z,6.80
2019-03-17T18:05:19.818Z,6.80
2019-03-17T18:07:48.346Z,6.70
2019-03-17T18:10:18.178Z,6.80
2019-03-17T18:12:46.632Z,6.80
2019-03-17T18:15:18.261Z,7.00
2019-03-17T18:17:46.805Z,7.00
2019-03-17T18:20:15.290Z,7.00
2019-03-17T18:22:43.825Z,6.90
2019-03-17T18:25:19.584Z,7.00
2019-03-17T18:27:48.105Z,6.90
2019-03-17T18:30:17.999Z,6.90
2019-03-17T18:32:46.527Z,6.90
2019-03-17T18:35:15.165Z,7.00
2019-03-17T18:37:43.704Z,6.90
2019-03-17T18:40:16.143Z,7.00
2019-03-17T18:42:44.741Z,7.00
2019-03-17T18:45:16.195Z,7.00
2019-03-17T18:47:44.727Z,7.00
2019-03-17T18:50:20.210Z,7.00
2019-03-17T18:52:45.385Z,7.00
2019-03-17T18:55:15.137Z,6.90
2019-03-17T18:57:43.667Z,7.00
2019-03-17T19:00:14.677Z,7.00
2019-03-17T19:02:43.283Z,6.90
2019-03-17T19:05:15.829Z,6.90
2019-03-17T19:07:44.427Z,6.70
2019-03-17T19:10:17.126Z,6.60
2019-03-17T19:12:46.634Z,6.50
2019-03-17T19:15:24.331Z,6.60
2019-03-17T19:17:52.858Z,6.60
2019-03-17T19:20:22.234Z,6.60
2019-03-17T19:22:50.814Z,6.50
2019-03-17T19:25:23.418Z,6.60
2019-03-17T19:27:51.995Z,6.60
2019-03-17T19:30:21.605Z,6.70
2019-03-17T19:32:50.186Z,6.70
2019-03-17T19:35:18.860Z,6.80
2019-03-17T19:37:47.483Z,6.70
2019-03-17T19:40:25.561Z,6.70
2019-03-17T19:42:59.827Z,6.70
2019-03-17T19:45:26.100Z,6.70
2019-03-17T19:47:54.607Z,6.60
2019-03-17T19:50:23.689Z,6.60
2019-03-17T19:52:52.166Z,6.50
2019-03-17T19:55:20.650Z,6.50
2019-03-17T19:57:49.114Z,6.40
2019-03-17T20:00:19.605Z,6.50
2019-03-17T20:02:48.156Z,6.40
2019-03-17T20:05:17.077Z,6.40
2019-03-17T20:07:45.600Z,6.40
2019-03-17T20:10:17.238Z,6.40
2019-03-17T20:12:45.791Z,6.10
2019-03-17T20:15:14.369Z,6.00
2019-03-17T20:17:42.855Z,5.90
2019-03-17T20:20:13.633Z,5.80
2019-03-17T20:22:42.242Z,5.80
2019-03-17T20:25:10.835Z,5.80
2019-03-17T20:27:39.385Z,5.70
2019-03-17T20:30:17.971Z,5.60
2019-03-17T20:32:46.598Z,5.60
2019-03-17T20:35:15.299Z,5.40
2019-03-17T20:37:43.925Z,5.30
2019-03-17T20:40:14.590Z,5.20
2019-03-17T20:42:43.078Z,5.30
2019-03-17T20:45:12.953Z,5.20
2019-03-17T20:47:41.475Z,5.20
2019-03-17T20:50:12.053Z,5.10
2019-03-17T20:52:40.681Z,5.00
2019-03-17T20:55:11.219Z,5.10
2019-03-17T20:57:39.952Z,5.10
2019-03-17T21:00:11.690Z,5.10
2019-03-17T21:02:40.512Z,5.20
2019-03-17T21:05:10.701Z,5.10
2019-03-17T21:07:39.931Z,5.10
2019-03-17T21:10:11.263Z,4.90
2019-03-17T21:12:39.818Z,4.90
2019-03-17T21:15:10.963Z,5.00
2019-03-17T21:17:39.658Z,5.00
2019-03-17T21:20:13.461Z,4.90
2019-03-17T21:22:42.111Z,4.90
2019-03-17T21:25:11.354Z,4.90
2019-03-17T21:27:39.980Z,5.00
2019-03-17T21:30:11.515Z,5.00
2019-03-17T21:32:40.012Z,4.90
2019-03-17T21:35:08.873Z,5.00
2019-03-17T21:37:37.411Z,4.90
2019-03-17T21:40:09.492Z,4.80
2019-03-17T21:42:37.977Z,4.70
2019-03-17T21:45:08.773Z,4.50
2019-03-17T21:47:37.254Z,4.40
2019-03-17T21:50:19.066Z,4.40
2019-03-17T21:52:47.622Z,4.30
2019-03-17T21:55:16.231Z,4.30
2019-03-17T21:57:44.781Z,4.40
2019-03-17T22:00:19.702Z,4.40
2019-03-17T22:02:48.469Z,4.30
2019-03-17T22:05:16.943Z,4.30
2019-03-17T22:07:50.192Z,4.40
2019-03-17T22:10:18.061Z,4.30
2019-03-17T22:12:46.584Z,4.30
2019-03-17T22:15:16.287Z,4.20
2019-03-17T22:17:44.810Z,4.20
2019-03-17T22:20:15.310Z,4.10
2019-03-17T22:22:43.984Z,4.10
2019-03-17T22:25:14.547Z,4.10
2019-03-17T22:27:43.154Z,4.20
2019-03-17T22:30:13.541Z,4.10
2019-03-17T22:32:42.003Z,4.20
2019-03-17T22:35:10.994Z,4.20
2019-03-17T22:37:39.535Z,4.10
2019-03-17T22:40:13.714Z,4.00
2019-03-17T22:42:44.991Z,3.90
2019-03-17T22:45:14.595Z,4.00
2019-03-17T22:47:43.187Z,3.90
2019-03-17T22:50:13.892Z,4.00
2019-03-17T22:52:42.423Z,4.10
2019-03-17T22:55:11.627Z,4.10
2019-03-17T22:57:40.563Z,4.20
2019-03-17T23:00:16.206Z,4.00
2019-03-17T23:02:44.747Z,4.00
2019-03-17T23:05:13.976Z,4.10
2019-03-17T23:07:42.505Z,4.00
2019-03-17T23:10:12.682Z,4.00
2019-03-17T23:12:41.572Z,4.10
2019-03-17T23:15:12.109Z,4.00
2019-03-17T23:17:40.986Z,4.00
2019-03-17T23:20:11.581Z,4.10
2019-03-17T23:22:40.184Z,4.00
2019-03-17T23:25:10.757Z,4.10
2019-03-17T23:27:39.362Z,4.10
2019-03-17T23:30:19.290Z,4.00
2019-03-17T23:32:49.290Z,3.80
2019-03-17T23:35:18.518Z,3.70
2019-03-17T23:37:47.071Z,3.80
2019-03-17T23:40:24.228Z,3.90
2019-03-17T23:42:52.789Z,3.80
2019-03-17T23:45:21.392Z,3.90
2019-03-17T23:47:49.970Z,3.70
2019-03-17T23:50:18.502Z,3.80
2019-03-17T23:52:47.230Z,3.70
2019-03-17T23:55:15.762Z,3.70
2019-03-17T23:57:44.320Z,3.70
